sensor_id;sensor_type;location;lat;lon;timestamp;pressure;altitude;pressure_sealevel;temperature;humidity
56894;BME280;43392;50.078;13.704;2023-03-20T00:00:17;97040.53;;;7.21;89.73
56894;BME280;43392;50.078;13.704;2023-03-20T00:02:46;97049.09;;;7.23;89.87
56894;BME280;43392;50.078;13.704;2023-03-20T00:05:17;97044.84;;;7.27;89.90
56894;BME280;43392;50.078;13.704;2023-03-20T00:07:45;97047.56;;;7.32;90.05
56894;BME280;43392;50.078;13.704;2023-03-20T00:10:14;97046.28;;;7.34;89.75
56894;BME280;43392;50.078;13.704;2023-03-20T00:12:44;97055.41;;;7.39;89.78
56894;BME280;43392;50.078;13.704;2023-03-20T00:15:31;97039.94;;;7.41;89.78
56894;BME280;43392;50.078;13.704;2023-03-20T00:17:58;97036.19;;;7.42;90.00
56894;BME280;43392;50.078;13.704;2023-03-20T00:20:26;97040.00;;;7.46;90.13
56894;BME280;43392;50.078;13.704;2023-03-20T00:22:52;97050.94;;;7.49;90.24
56894;BME280;43392;50.078;13.704;2023-03-20T00:25:21;97048.31;;;7.54;90.44
56894;BME280;43392;50.078;13.704;2023-03-20T00:27:50;97042.16;;;7.54;90.29
56894;BME280;43392;50.078;13.704;2023-03-20T00:30:25;97052.09;;;7.58;90.14
56894;BME280;43392;50.078;13.704;2023-03-20T00:32:55;97052.34;;;7.57;89.97
56894;BME280;43392;50.078;13.704;2023-03-20T00:35:25;97042.44;;;7.52;89.42
56894;BME280;43392;50.078;13.704;2023-03-20T00:37:52;97047.47;;;7.49;89.41
56894;BME280;43392;50.078;13.704;2023-03-20T00:40:19;97048.78;;;7.46;89.73
56894;BME280;43392;50.078;13.704;2023-03-20T00:42:50;97049.53;;;7.42;89.73
56894;BME280;43392;50.078;13.704;2023-03-20T00:45:21;97041.97;;;7.28;87.96
56894;BME280;43392;50.078;13.704;2023-03-20T00:47:49;97048.75;;;7.14;88.41
56894;BME280;43392;50.078;13.704;2023-03-20T00:50:19;97046.81;;;7.10;89.39
56894;BME280;43392;50.078;13.704;2023-03-20T00:52:47;97036.09;;;7.05;89.58
56894;BME280;43392;50.078;13.704;2023-03-20T00:55:14;97043.38;;;7.09;89.70
56894;BME280;43392;50.078;13.704;2023-03-20T00:57:43;97045.78;;;7.11;90.01
56894;BME280;43392;50.078;13.704;2023-03-20T01:00:38;97036.16;;;7.10;90.07
56894;BME280;43392;50.078;13.704;2023-03-20T01:03:14;97041.75;;;7.08;90.25
56894;BME280;43392;50.078;13.704;2023-03-20T01:05:41;97031.34;;;7.07;90.32
56894;BME280;43392;50.078;13.704;2023-03-20T01:08:12;97033.69;;;7.03;90.56
56894;BME280;43392;50.078;13.704;2023-03-20T01:10:38;97037.22;;;7.09;90.63
56894;BME280;43392;50.078;13.704;2023-03-20T01:13:14;97030.59;;;7.11;91.07
56894;BME280;43392;50.078;13.704;2023-03-20T01:15:44;97031.69;;;7.15;91.14
56894;BME280;43392;50.078;13.704;2023-03-20T01:18:13;97026.13;;;7.17;91.01
56894;BME280;43392;50.078;13.704;2023-03-20T01:20:39;97026.66;;;7.19;91.05
56894;BME280;43392;50.078;13.704;2023-03-20T01:23:06;97028.81;;;7.22;91.03
56894;BME280;43392;50.078;13.704;2023-03-20T01:25:33;97018.94;;;7.22;91.12
56894;BME280;43392;50.078;13.704;2023-03-20T01:28:00;97019.75;;;7.23;91.08
56894;BME280;43392;50.078;13.704;2023-03-20T01:30:29;97030.69;;;7.21;91.04
56894;BME280;43392;50.078;13.704;2023-03-20T01:32:59;97032.28;;;7.22;91.03
56894;BME280;43392;50.078;13.704;2023-03-20T01:35:27;97033.09;;;7.23;90.86
56894;BME280;43392;50.078;13.704;2023-03-20T01:37:54;97040.53;;;7.21;89.89
56894;BME280;43392;50.078;13.704;2023-03-20T01:40:30;97033.75;;;7.08;89.28
56894;BME280;43392;50.078;13.704;2023-03-20T01:42:58;97030.22;;;7.03;89.48
56894;BME280;43392;50.078;13.704;2023-03-20T01:45:30;97043.00;;;7.01;89.88
56894;BME280;43392;50.078;13.704;2023-03-20T01:48:02;97034.59;;;6.87;87.83
56894;BME280;43392;50.078;13.704;2023-03-20T01:50:37;97041.66;;;6.77;88.09
56894;BME280;43392;50.078;13.704;2023-03-20T01:53:09;97034.16;;;6.74;89.12
56894;BME280;43392;50.078;13.704;2023-03-20T01:55:38;97036.09;;;6.78;90.06
56894;BME280;43392;50.078;13.704;2023-03-20T01:58:07;97033.47;;;6.83;90.31
56894;BME280;43392;50.078;13.704;2023-03-20T02:00:36;97034.34;;;6.89;90.80
56894;BME280;43392;50.078;13.704;2023-03-20T02:03:05;97027.50;;;6.98;91.17
56894;BME280;43392;50.078;13.704;2023-03-20T02:05:34;97030.75;;;7.05;91.15
56894;BME280;43392;50.078;13.704;2023-03-20T02:08:16;97027.09;;;7.11;91.00
56894;BME280;43392;50.078;13.704;2023-03-20T02:10:45;97027.16;;;7.16;91.36
56894;BME280;43392;50.078;13.704;2023-03-20T02:13:14;97020.25;;;7.20;90.83
56894;BME280;43392;50.078;13.704;2023-03-20T02:16:01;97022.88;;;7.15;89.05
56894;BME280;43392;50.078;13.704;2023-03-20T02:18:30;97027.53;;;7.03;88.74
56894;BME280;43392;50.078;13.704;2023-03-20T02:21:13;97028.25;;;6.93;89.22
56894;BME280;43392;50.078;13.704;2023-03-20T02:24:11;97027.34;;;6.83;89.56
56894;BME280;43392;50.078;13.704;2023-03-20T02:26:49;97035.84;;;6.80;90.00
56894;BME280;43392;50.078;13.704;2023-03-20T02:29:37;97035.03;;;6.79;90.22
56894;BME280;43392;50.078;13.704;2023-03-20T02:35:36;97037.50;;;6.86;90.52
56894;BME280;43392;50.078;13.704;2023-03-20T02:38:30;97032.97;;;6.86;90.75
56894;BME280;43392;50.078;13.704;2023-03-20T02:41:05;97042.59;;;6.87;90.63
56894;BME280;43392;50.078;13.704;2023-03-20T02:43:43;97032.75;;;6.88;90.97
56894;BME280;43392;50.078;13.704;2023-03-20T02:46:18;97031.66;;;6.89;91.20
56894;BME280;43392;50.078;13.704;2023-03-20T02:48:52;97034.09;;;6.90;91.00
56894;BME280;43392;50.078;13.704;2023-03-20T02:51:26;97035.94;;;6.90;91.14
56894;BME280;43392;50.078;13.704;2023-03-20T02:54:05;97032.22;;;6.91;91.14
56894;BME280;43392;50.078;13.704;2023-03-20T02:56:36;97034.09;;;6.90;91.05
56894;BME280;43392;50.078;13.704;2023-03-20T02:59:12;97034.34;;;6.89;91.04
56894;BME280;43392;50.078;13.704;2023-03-20T03:01:44;97022.81;;;6.83;90.82
56894;BME280;43392;50.078;13.704;2023-03-20T03:04:16;97029.25;;;6.87;91.18
56894;BME280;43392;50.078;13.704;2023-03-20T03:06:47;97022.63;;;6.90;91.19
56894;BME280;43392;50.078;13.704;2023-03-20T03:09:19;97026.34;;;6.89;91.18
56894;BME280;43392;50.078;13.704;2023-03-20T03:11:49;97029.56;;;6.91;90.96
56894;BME280;43392;50.078;13.704;2023-03-20T03:14:20;97036.50;;;6.92;91.14
56894;BME280;43392;50.078;13.704;2023-03-20T03:16:50;97033.56;;;6.93;91.08
56894;BME280;43392;50.078;13.704;2023-03-20T03:19:20;97043.44;;;6.93;90.67
56894;BME280;43392;50.078;13.704;2023-03-20T03:21:48;97033.03;;;6.91;90.29
56894;BME280;43392;50.078;13.704;2023-03-20T03:24:27;97029.00;;;6.89;90.43
56894;BME280;43392;50.078;13.704;2023-03-20T03:26:55;97032.47;;;6.89;90.53
56894;BME280;43392;50.078;13.704;2023-03-20T03:29:24;97038.63;;;6.90;90.41
56894;BME280;43392;50.078;13.704;2023-03-20T03:31:53;97038.06;;;6.88;90.15
56894;BME280;43392;50.078;13.704;2023-03-20T03:34:21;97026.22;;;6.79;90.47
56894;BME280;43392;50.078;13.704;2023-03-20T03:36:54;97028.94;;;6.84;90.16
56894;BME280;43392;50.078;13.704;2023-03-20T03:39:34;97034.59;;;6.87;90.19
56894;BME280;43392;50.078;13.704;2023-03-20T03:42:04;97032.47;;;6.89;90.19
56894;BME280;43392;50.078;13.704;2023-03-20T03:44:38;97038.34;;;6.91;90.34
56894;BME280;43392;50.078;13.704;2023-03-20T03:47:10;97036.00;;;6.95;90.55
56894;BME280;43392;50.078;13.704;2023-03-20T03:49:42;97035.50;;;6.98;90.40
56894;BME280;43392;50.078;13.704;2023-03-20T03:52:13;97043.81;;;7.01;90.47
56894;BME280;43392;50.078;13.704;2023-03-20T03:54:42;97039.03;;;7.03;90.40
56894;BME280;43392;50.078;13.704;2023-03-20T03:57:12;97047.34;;;7.07;90.53
56894;BME280;43392;50.078;13.704;2023-03-20T03:59:43;97048.44;;;7.11;90.59
56894;BME280;43392;50.078;13.704;2023-03-20T04:02:11;97050.84;;;7.12;90.49
56894;BME280;43392;50.078;13.704;2023-03-20T04:04:42;97048.50;;;7.16;90.27
56894;BME280;43392;50.078;13.704;2023-03-20T04:07:12;97037.81;;;7.16;90.42
56894;BME280;43392;50.078;13.704;2023-03-20T04:09:38;97037.38;;;7.24;90.40
56894;BME280;43392;50.078;13.704;2023-03-20T04:12:34;97041.41;;;7.26;88.83
56894;BME280;43392;50.078;13.704;2023-03-20T04:15:02;97035.91;;;7.11;88.09
56894;BME280;43392;50.078;13.704;2023-03-20T04:17:29;97040.31;;;7.01;87.98
56894;BME280;43392;50.078;13.704;2023-03-20T04:19:55;97042.72;;;6.97;89.04
56894;BME280;43392;50.078;13.704;2023-03-20T04:22:22;97041.94;;;7.02;89.49
56894;BME280;43392;50.078;13.704;2023-03-20T04:24:49;97046.28;;;7.08;89.79
56894;BME280;43392;50.078;13.704;2023-03-20T04:27:18;97038.63;;;7.16;89.74
56894;BME280;43392;50.078;13.704;2023-03-20T04:29:45;97046.97;;;7.25;90.05
56894;BME280;43392;50.078;13.704;2023-03-20T04:32:12;97052.63;;;7.28;89.94
56894;BME280;43392;50.078;13.704;2023-03-20T04:34:38;97041.69;;;7.30;89.92
56894;BME280;43392;50.078;13.704;2023-03-20T04:37:05;97042.13;;;7.22;87.86
56894;BME280;43392;50.078;13.704;2023-03-20T04:39:32;97048.44;;;7.11;88.32
56894;BME280;43392;50.078;13.704;2023-03-20T04:41:59;97048.31;;;7.01;88.10
56894;BME280;43392;50.078;13.704;2023-03-20T04:44:27;97045.66;;;7.01;88.35
56894;BME280;43392;50.078;13.704;2023-03-20T04:46:54;97055.03;;;7.03;88.92
56894;BME280;43392;50.078;13.704;2023-03-20T04:49:20;97057.75;;;7.08;89.21
56894;BME280;43392;50.078;13.704;2023-03-20T04:51:47;97048.75;;;7.14;89.44
56894;BME280;43392;50.078;13.704;2023-03-20T04:54:14;97056.53;;;7.21;89.38
56894;BME280;43392;50.078;13.704;2023-03-20T04:56:40;97053.66;;;7.27;89.29
56894;BME280;43392;50.078;13.704;2023-03-20T04:59:07;97049.44;;;7.31;89.47
56894;BME280;43392;50.078;13.704;2023-03-20T05:01:35;97048.69;;;7.36;89.14
56894;BME280;43392;50.078;13.704;2023-03-20T05:04:01;97049.75;;;7.35;88.83
56894;BME280;43392;50.078;13.704;2023-03-20T05:06:29;97045.50;;;7.39;89.02
56894;BME280;43392;50.078;13.704;2023-03-20T05:08:55;97054.63;;;7.43;89.02
56894;BME280;43392;50.078;13.704;2023-03-20T05:11:23;97059.44;;;7.46;89.14
56894;BME280;43392;50.078;13.704;2023-03-20T05:13:50;97068.03;;;7.48;89.37
56894;BME280;43392;50.078;13.704;2023-03-20T05:16:17;97075.22;;;7.48;89.36
56894;BME280;43392;50.078;13.704;2023-03-20T05:18:45;97066.41;;;7.47;89.77
56894;BME280;43392;50.078;13.704;2023-03-20T05:21:11;97064.78;;;7.46;89.83
56894;BME280;43392;50.078;13.704;2023-03-20T05:23:38;97070.66;;;7.43;90.12
56894;BME280;43392;50.078;13.704;2023-03-20T05:26:05;97078.09;;;7.41;90.46
56894;BME280;43392;50.078;13.704;2023-03-20T05:28:32;97074.06;;;7.39;90.51
56894;BME280;43392;50.078;13.704;2023-03-20T05:30:58;97083.88;;;7.33;90.84
56894;BME280;43392;50.078;13.704;2023-03-20T05:33:25;97089.72;;;7.30;90.95
56894;BME280;43392;50.078;13.704;2023-03-20T05:35:53;97081.97;;;7.28;91.31
56894;BME280;43392;50.078;13.704;2023-03-20T05:38:19;97080.84;;;7.24;91.24
56894;BME280;43392;50.078;13.704;2023-03-20T05:40:47;97083.75;;;7.23;91.30
56894;BME280;43392;50.078;13.704;2023-03-20T05:43:13;97095.47;;;7.22;91.58
56894;BME280;43392;50.078;13.704;2023-03-20T05:45:41;97085.00;;;7.15;91.67
56894;BME280;43392;50.078;13.704;2023-03-20T05:48:07;97100.81;;;7.22;91.63
56894;BME280;43392;50.078;13.704;2023-03-20T05:50:34;97099.22;;;7.21;91.43
56894;BME280;43392;50.078;13.704;2023-03-20T05:53:02;97100.03;;;7.21;91.74
56894;BME280;43392;50.078;13.704;2023-03-20T05:55:28;97107.78;;;7.23;91.57
56894;BME280;43392;50.078;13.704;2023-03-20T05:57:55;97109.94;;;7.26;91.73
56894;BME280;43392;50.078;13.704;2023-03-20T06:00:22;97104.34;;;7.27;91.53
56894;BME280;43392;50.078;13.704;2023-03-20T06:02:49;97107.56;;;7.29;91.49
56894;BME280;43392;50.078;13.704;2023-03-20T06:05:16;97107.34;;;7.31;91.66
56894;BME280;43392;50.078;13.704;2023-03-20T06:07:42;97113.22;;;7.33;91.69
56894;BME280;43392;50.078;13.704;2023-03-20T06:10:11;97112.72;;;7.36;91.47
56894;BME280;43392;50.078;13.704;2023-03-20T06:12:37;97110.59;;;7.38;91.75
56894;BME280;43392;50.078;13.704;2023-03-20T06:15:05;97114.63;;;7.41;91.95
56894;BME280;43392;50.078;13.704;2023-03-20T06:17:32;97109.59;;;7.44;91.86
56894;BME280;43392;50.078;13.704;2023-03-20T06:19:58;97114.16;;;7.49;91.90
56894;BME280;43392;50.078;13.704;2023-03-20T06:22:25;97116.09;;;7.53;91.75
56894;BME280;43392;50.078;13.704;2023-03-20T06:24:52;97124.41;;;7.57;91.48
56894;BME280;43392;50.078;13.704;2023-03-20T06:27:20;97126.03;;;7.58;91.55
56894;BME280;43392;50.078;13.704;2023-03-20T06:29:47;97123.09;;;7.59;91.55
56894;BME280;43392;50.078;13.704;2023-03-20T06:32:13;97127.38;;;7.60;91.42
56894;BME280;43392;50.078;13.704;2023-03-20T06:34:41;97135.44;;;7.65;91.21
56894;BME280;43392;50.078;13.704;2023-03-20T06:37:08;97134.41;;;7.71;91.10
56894;BME280;43392;50.078;13.704;2023-03-20T06:39:34;97135.50;;;7.75;91.12
56894;BME280;43392;50.078;13.704;2023-03-20T06:42:01;97134.25;;;7.83;91.10
56894;BME280;43392;50.078;13.704;2023-03-20T06:44:29;97128.16;;;7.87;90.95
56894;BME280;43392;50.078;13.704;2023-03-20T06:46:56;97122.84;;;7.92;91.07
56894;BME280;43392;50.078;13.704;2023-03-20T06:49:23;97136.56;;;8.01;90.65
56894;BME280;43392;50.078;13.704;2023-03-20T06:51:49;97134.44;;;8.03;89.92
56894;BME280;43392;50.078;13.704;2023-03-20T06:54:16;97130.72;;;8.04;90.16
56894;BME280;43392;50.078;13.704;2023-03-20T06:56:42;97127.28;;;8.09;90.61
56894;BME280;43392;50.078;13.704;2023-03-20T06:59:09;97135.56;;;8.12;90.49
56894;BME280;43392;50.078;13.704;2023-03-20T07:01:37;97132.13;;;8.17;90.45
56894;BME280;43392;50.078;13.704;2023-03-20T07:04:04;97134.84;;;8.22;90.75
56894;BME280;43392;50.078;13.704;2023-03-20T07:06:31;97140.63;;;8.40;91.02
56894;BME280;43392;50.078;13.704;2023-03-20T07:08:59;97142.47;;;9.44;88.35
56894;BME280;43392;50.078;13.704;2023-03-20T07:11:26;97139.09;;;10.49;83.39
56894;BME280;43392;50.078;13.704;2023-03-20T07:13:52;97141.97;;;10.93;80.76
56894;BME280;43392;50.078;13.704;2023-03-20T07:16:19;97144.22;;;10.50;79.78
56894;BME280;43392;50.078;13.704;2023-03-20T07:18:48;97154.63;;;9.96;80.76
56894;BME280;43392;50.078;13.704;2023-03-20T07:21:17;97136.06;;;9.50;82.52
56894;BME280;43392;50.078;13.704;2023-03-20T07:23:45;97147.72;;;9.18;83.66
56894;BME280;43392;50.078;13.704;2023-03-20T07:26:12;97143.91;;;8.99;84.54
56894;BME280;43392;50.078;13.704;2023-03-20T07:28:39;97151.84;;;8.84;84.96
56894;BME280;43392;50.078;13.704;2023-03-20T07:31:05;97151.81;;;8.74;85.54
56894;BME280;43392;50.078;13.704;2023-03-20T07:33:32;97154.44;;;8.69;85.95
56894;BME280;43392;50.078;13.704;2023-03-20T07:36:00;97150.94;;;8.63;86.34
56894;BME280;43392;50.078;13.704;2023-03-20T07:38:26;97144.28;;;8.66;86.29
56894;BME280;43392;50.078;13.704;2023-03-20T07:40:53;97150.44;;;8.66;86.28
56894;BME280;43392;50.078;13.704;2023-03-20T07:43:20;97153.34;;;8.65;86.14
56894;BME280;43392;50.078;13.704;2023-03-20T07:45:46;97153.91;;;8.67;86.30
56894;BME280;43392;50.078;13.704;2023-03-20T07:48:13;97153.91;;;8.72;86.43
56894;BME280;43392;50.078;13.704;2023-03-20T07:50:40;97160.66;;;8.80;86.48
56894;BME280;43392;50.078;13.704;2023-03-20T07:53:08;97158.81;;;8.85;86.42
56894;BME280;43392;50.078;13.704;2023-03-20T07:55:35;97163.13;;;8.91;86.36
56894;BME280;43392;50.078;13.704;2023-03-20T07:58:01;97157.03;;;9.01;86.31
56894;BME280;43392;50.078;13.704;2023-03-20T08:00:28;97154.13;;;9.12;86.37
56894;BME280;43392;50.078;13.704;2023-03-20T08:02:55;97147.50;;;9.25;86.01
56894;BME280;43392;50.078;13.704;2023-03-20T08:05:22;97166.00;;;9.37;86.04
56894;BME280;43392;50.078;13.704;2023-03-20T08:07:49;97158.56;;;9.49;85.86
56894;BME280;43392;50.078;13.704;2023-03-20T08:10:17;97151.63;;;9.58;85.74
56894;BME280;43392;50.078;13.704;2023-03-20T08:12:44;97158.06;;;9.67;85.40
56894;BME280;43392;50.078;13.704;2023-03-20T08:15:11;97155.94;;;9.74;85.24
56894;BME280;43392;50.078;13.704;2023-03-20T08:17:41;97154.88;;;9.80;85.02
56894;BME280;43392;50.078;13.704;2023-03-20T08:20:08;97158.63;;;9.84;84.86
56894;BME280;43392;50.078;13.704;2023-03-20T08:22:35;97164.50;;;9.86;84.58
56894;BME280;43392;50.078;13.704;2023-03-20T08:25:02;97156.78;;;9.89;84.22
56894;BME280;43392;50.078;13.704;2023-03-20T08:27:30;97150.88;;;9.92;84.32
56894;BME280;43392;50.078;13.704;2023-03-20T08:29:57;97150.09;;;9.97;84.20
56894;BME280;43392;50.078;13.704;2023-03-20T08:32:23;97154.38;;;10.03;84.07
56894;BME280;43392;50.078;13.704;2023-03-20T08:34:50;97157.84;;;10.09;84.04
56894;BME280;43392;50.078;13.704;2023-03-20T08:37:19;97141.28;;;10.12;84.15
56894;BME280;43392;50.078;13.704;2023-03-20T08:39:46;97160.84;;;10.27;83.82
56894;BME280;43392;50.078;13.704;2023-03-20T08:42:12;97161.38;;;10.39;83.64
56894;BME280;43392;50.078;13.704;2023-03-20T08:44:40;97154.94;;;10.55;83.29
56894;BME280;43392;50.078;13.704;2023-03-20T08:47:07;97156.28;;;10.68;83.16
56894;BME280;43392;50.078;13.704;2023-03-20T08:49:35;97160.00;;;10.82;82.65
56894;BME280;43392;50.078;13.704;2023-03-20T08:52:02;97159.19;;;10.82;82.88
56894;BME280;43392;50.078;13.704;2023-03-20T08:54:29;97156.78;;;10.80;82.49
56894;BME280;43392;50.078;13.704;2023-03-20T08:56:56;97157.81;;;10.89;82.00
56894;BME280;43392;50.078;13.704;2023-03-20T08:59:22;97163.41;;;11.03;81.81
56894;BME280;43392;50.078;13.704;2023-03-20T09:01:50;97154.28;;;11.14;81.96
56894;BME280;43392;50.078;13.704;2023-03-20T09:04:17;97151.28;;;11.25;81.68
56894;BME280;43392;50.078;13.704;2023-03-20T09:06:44;97159.25;;;11.41;82.06
56894;BME280;43392;50.078;13.704;2023-03-20T09:09:10;97160.53;;;11.48;81.75
56894;BME280;43392;50.078;13.704;2023-03-20T09:11:40;97161.06;;;11.55;81.28
56894;BME280;43392;50.078;13.704;2023-03-20T09:14:06;97158.63;;;11.59;80.99
56894;BME280;43392;50.078;13.704;2023-03-20T09:16:33;97156.19;;;11.62;80.55
56894;BME280;43392;50.078;13.704;2023-03-20T09:19:01;97150.25;;;11.65;80.43
56894;BME280;43392;50.078;13.704;2023-03-20T09:21:28;97155.38;;;11.72;80.00
56894;BME280;43392;50.078;13.704;2023-03-20T09:23:54;97148.09;;;11.72;79.93
56894;BME280;43392;50.078;13.704;2023-03-20T09:26:21;97157.53;;;11.70;79.98
56894;BME280;43392;50.078;13.704;2023-03-20T09:28:48;97153.22;;;11.69;80.58
56894;BME280;43392;50.078;13.704;2023-03-20T09:31:14;97154.31;;;11.68;80.70
56894;BME280;43392;50.078;13.704;2023-03-20T09:33:41;97160.47;;;11.68;80.69
56894;BME280;43392;50.078;13.704;2023-03-20T09:36:09;97151.34;;;11.69;80.63
56894;BME280;43392;50.078;13.704;2023-03-20T09:38:36;97155.09;;;11.68;80.10
56894;BME280;43392;50.078;13.704;2023-03-20T09:41:11;97162.91;;;11.70;79.61
56894;BME280;43392;50.078;13.704;2023-03-20T09:43:51;97164.47;;;11.76;79.21
56894;BME280;43392;50.078;13.704;2023-03-20T09:46:31;97146.97;;;11.83;79.30
56894;BME280;43392;50.078;13.704;2023-03-20T09:49:06;97150.63;;;11.97;78.78
56894;BME280;43392;50.078;13.704;2023-03-20T09:51:42;97147.63;;;12.04;78.72
56894;BME280;43392;50.078;13.704;2023-03-20T09:54:16;97156.50;;;12.05;78.53
56894;BME280;43392;50.078;13.704;2023-03-20T09:56:46;97146.19;;;12.17;78.46
56894;BME280;43392;50.078;13.704;2023-03-20T09:59:14;97139.16;;;12.21;77.80
56894;BME280;43392;50.078;13.704;2023-03-20T10:01:46;97142.09;;;12.24;77.72
56894;BME280;43392;50.078;13.704;2023-03-20T10:04:13;97136.78;;;12.48;77.82
56894;BME280;43392;50.078;13.704;2023-03-20T10:06:41;97130.97;;;12.64;77.21
56894;BME280;43392;50.078;13.704;2023-03-20T10:09:14;97130.03;;;12.79;77.05
56894;BME280;43392;50.078;13.704;2023-03-20T10:11:59;97128.19;;;12.98;76.85
56894;BME280;43392;50.078;13.704;2023-03-20T10:14:35;97118.41;;;13.12;76.01
56894;BME280;43392;50.078;13.704;2023-03-20T10:17:16;97123.56;;;13.27;74.82
56894;BME280;43392;50.078;13.704;2023-03-20T10:19:50;97133.78;;;13.30;75.39
56894;BME280;43392;50.078;13.704;2023-03-20T10:22:22;97126.59;;;13.45;74.75
56894;BME280;43392;50.078;13.704;2023-03-20T10:24:53;97128.28;;;13.41;75.02
56894;BME280;43392;50.078;13.704;2023-03-20T10:27:23;97129.34;;;13.40;68.99
56894;BME280;43392;50.078;13.704;2023-03-20T10:29:56;97136.72;;;13.53;71.40
56894;BME280;43392;50.078;13.704;2023-03-20T10:32:28;97137.03;;;13.51;71.17
56894;BME280;43392;50.078;13.704;2023-03-20T10:35:03;97133.59;;;13.46;70.89
56894;BME280;43392;50.078;13.704;2023-03-20T10:37:45;97128.63;;;13.34;71.80
56894;BME280;43392;50.078;13.704;2023-03-20T10:40:23;97133.13;;;13.20;71.62
56894;BME280;43392;50.078;13.704;2023-03-20T10:42:53;97129.75;;;13.04;71.52
56894;BME280;43392;50.078;13.704;2023-03-20T10:45:28;97135.59;;;12.88;69.81
56894;BME280;43392;50.078;13.704;2023-03-20T10:47:58;97135.44;;;12.74;70.79
56894;BME280;43392;50.078;13.704;2023-03-20T10:50:28;97143.91;;;12.62;70.55
56894;BME280;43392;50.078;13.704;2023-03-20T10:52:58;97133.03;;;12.49;70.43
56894;BME280;43392;50.078;13.704;2023-03-20T10:55:31;97130.41;;;12.39;69.77
56894;BME280;43392;50.078;13.704;2023-03-20T10:58:01;97129.38;;;12.35;70.79
56894;BME280;43392;50.078;13.704;2023-03-20T11:00:30;97129.38;;;12.35;70.98
56894;BME280;43392;50.078;13.704;2023-03-20T11:02:58;97129.09;;;12.36;71.34
56894;BME280;43392;50.078;13.704;2023-03-20T11:05:28;97132.31;;;12.38;71.32
56894;BME280;43392;50.078;13.704;2023-03-20T11:08:02;97126.84;;;12.48;71.14
56894;BME280;43392;50.078;13.704;2023-03-20T11:10:31;97122.25;;;12.49;69.90
56894;BME280;43392;50.078;13.704;2023-03-20T11:13:03;97133.50;;;12.56;70.68
56894;BME280;43392;50.078;13.704;2023-03-20T11:15:38;97129.44;;;12.58;69.59
56894;BME280;43392;50.078;13.704;2023-03-20T11:18:06;97131.78;;;12.65;69.94
56894;BME280;43392;50.078;13.704;2023-03-20T11:20:36;97127.47;;;12.69;69.59
56894;BME280;43392;50.078;13.704;2023-03-20T11:23:06;97123.09;;;12.73;69.69
56894;BME280;43392;50.078;13.704;2023-03-20T11:25:35;97129.56;;;12.72;68.96
56894;BME280;43392;50.078;13.704;2023-03-20T11:28:24;97140.84;;;12.74;68.90
56894;BME280;43392;50.078;13.704;2023-03-20T11:30:56;97133.34;;;12.71;68.27
56894;BME280;43392;50.078;13.704;2023-03-20T11:33:25;97140.84;;;12.74;69.11
56894;BME280;43392;50.078;13.704;2023-03-20T11:35:55;97124.47;;;12.71;69.00
56894;BME280;43392;50.078;13.704;2023-03-20T11:38:23;97127.13;;;12.76;69.16
56894;BME280;43392;50.078;13.704;2023-03-20T11:40:51;97136.03;;;12.71;68.27
56894;BME280;43392;50.078;13.704;2023-03-20T11:43:19;97112.44;;;12.63;67.74
56894;BME280;43392;50.078;13.704;2023-03-20T11:45:48;97126.97;;;12.62;67.72
56894;BME280;43392;50.078;13.704;2023-03-20T11:48:18;97124.63;;;12.55;66.32
56894;BME280;43392;50.078;13.704;2023-03-20T11:50:47;97120.66;;;12.48;65.60
56894;BME280;43392;50.078;13.704;2023-03-20T11:53:24;97125.22;;;12.47;66.08
56894;BME280;43392;50.078;13.704;2023-03-20T11:56:10;97112.88;;;12.46;64.52
56894;BME280;43392;50.078;13.704;2023-03-20T11:58:45;97112.63;;;12.43;64.31
56894;BME280;43392;50.078;13.704;2023-03-20T12:01:13;97112.97;;;12.36;62.57
56894;BME280;43392;50.078;13.704;2023-03-20T12:03:43;97108.09;;;12.38;63.00
56894;BME280;43392;50.078;13.704;2023-03-20T12:06:16;97106.69;;;12.46;62.90
56894;BME280;43392;50.078;13.704;2023-03-20T12:08:52;97113.00;;;12.60;63.58
56894;BME280;43392;50.078;13.704;2023-03-20T12:11:35;97105.81;;;12.79;63.43
56894;BME280;43392;50.078;13.704;2023-03-20T12:14:07;97095.50;;;12.86;63.80
56894;BME280;43392;50.078;13.704;2023-03-20T12:16:38;97107.25;;;12.95;63.44
56894;BME280;43392;50.078;13.704;2023-03-20T12:19:11;97097.06;;;12.92;62.48
56894;BME280;43392;50.078;13.704;2023-03-20T12:21:45;97097.34;;;12.91;62.68
56894;BME280;43392;50.078;13.704;2023-03-20T12:24:25;97094.41;;;12.87;62.57
56894;BME280;43392;50.078;13.704;2023-03-20T12:26:57;97095.09;;;12.74;61.42
56894;BME280;43392;50.078;13.704;2023-03-20T12:29:29;97097.09;;;12.63;62.16
56894;BME280;43392;50.078;13.704;2023-03-20T12:32:01;97095.53;;;12.57;62.23
56894;BME280;43392;50.078;13.704;2023-03-20T12:34:33;97099.34;;;12.56;62.87
56894;BME280;43392;50.078;13.704;2023-03-20T12:37:00;97094.75;;;12.57;63.07
56894;BME280;43392;50.078;13.704;2023-03-20T12:39:32;97097.31;;;12.67;63.25
56894;BME280;43392;50.078;13.704;2023-03-20T12:42:08;97090.88;;;12.92;64.03
56894;BME280;43392;50.078;13.704;2023-03-20T12:44:45;97080.41;;;13.14;63.87
56894;BME280;43392;50.078;13.704;2023-03-20T12:47:22;97086.69;;;13.28;63.16
56894;BME280;43392;50.078;13.704;2023-03-20T12:49:55;97080.81;;;13.45;62.27
56894;BME280;43392;50.078;13.704;2023-03-20T12:52:33;97067.69;;;13.38;60.91
56894;BME280;43392;50.078;13.704;2023-03-20T12:55:21;97075.84;;;13.33;61.14
56894;BME280;43392;50.078;13.704;2023-03-20T12:58:00;97070.91;;;13.40;60.11
56894;BME280;43392;50.078;13.704;2023-03-20T13:00:33;97072.72;;;13.45;59.12
56894;BME280;43392;50.078;13.704;2023-03-20T13:03:16;97065.44;;;13.64;57.78
56894;BME280;43392;50.078;13.704;2023-03-20T13:05:50;97065.75;;;13.62;57.87
56894;BME280;43392;50.078;13.704;2023-03-20T13:08:34;97061.59;;;13.70;57.98
56894;BME280;43392;50.078;13.704;2023-03-20T13:11:11;97051.28;;;13.90;58.30
56894;BME280;43392;50.078;13.704;2023-03-20T13:13:46;97041.88;;;13.88;55.54
56894;BME280;43392;50.078;13.704;2023-03-20T13:16:22;97059.00;;;13.78;55.58